Round Top, Texas
Current Conditions -  °F | °C
As of 7:55 PM on Saturday 22 Nov 2014 (Local Time) from K3T5 Reporting Station
Thunderstorm Thunderstorm  
Wind Chill: 70°   Ceiling: 700
Heat Index: 70°   Visibility: 7mi
Dew Point: 69°   Wind: 8mph
Humidity: 96%   Direction: 160°SSE
Pressure: 29.75"   Gusts: NA
Location:  30.06°N, 96.7°W
Report Text: K3T5 230155Z AUTO 16007KT 7SM VCTS OVC007 21/20 A2975 RMK AO2 LTG DSNT SE S AND NW T02090203
Loading
Personal Weather Stations






























Interactive Weather Map New forecast layout! Learn more

10-Day Weather Forecast

Advertisements
Track Severe Weather on mobile